MRIT2: Lake Meredith

                                SHEF ID:       MRIT2     Lake Meredith
STATION TYPE: RESERVOIR
Flood Pool: Bottom = 2941.30, Top = 2965.00

PRECIP ELEVATION STORAGE INFLOW RELEASE WIND-DIRWIND-SPEED
in ft ac-ft cfs cfs deg mph
Ccp-Rev Ccp-Rev Ccp-Rev Rev-Regi Rev-Regi Ccp-Rev Ccp-Rev
(America/Chicago)
04/25 00:00 ---- 2891.61 262051 0 0 ---- ----
04/25 01:00 ---- 2891.60 261973 0 0 ---- ----
04/25 02:00 ---- 2891.60 261973 0 0 ---- ----
04/25 03:00 ---- 2891.63 262208 0 0 ---- ----
04/25 04:00 ---- 2891.61 262051 0 0 ---- ----
04/25 05:00 ---- 2891.62 262130 0 0 ---- ----
04/25 06:00 ---- 2891.61 262051 0 0 ---- ----
04/25 07:00 ---- 2891.62 262130 126 0 ---- ----
04/25 08:00 ---- 2891.60 261973 126 0 ---- ----
04/25 09:00 ---- 2891.62 262130 189 0 ---- ----
04/25 10:00 ---- 2891.62 262130 189 0 ---- ----
04/25 11:00 ---- 2891.63 262208 189 0 ---- ----
04/25 12:00 ---- 2891.63 262208 63 0 ---- ----
04/25 13:00 ---- 2891.63 262208 63 0 ---- ----
04/25 14:00 ---- 2891.63 262208 0 0 ---- ----
04/25 15:00 ---- 2891.63 262208 0 0 ---- ----
04/25 16:00 ---- 2891.63 262208 0 0 ---- ----
04/25 17:00 ---- 2891.61 262051 0 0 ---- ----
04/25 18:00 ---- 2891.61 262051 0 0 ---- ----
04/25 19:00 ---- 2891.62 262130 95 0 ---- ----
04/25 20:00 ---- 2891.61 262051 189 0 ---- ----
04/25 21:00 ---- 2891.62 262130 284 0 ---- ----
04/25 22:00 ---- 2891.63 262208 379 0 ---- ----
04/25 23:00 ---- ---- ---- ---- ---- ---- ----
Data processed at Sun 26Apr2026 04:43 GMT

NOTICE: If you are parsing this page

Please convert to using our Data API. Starting early 2026 we will be migrating to: https://water.usace.army.mil with modern pages rendered in JavaScript. When this migration completes you will no longer be able to scrape this page! CWMSDataAPI (CDA)

Timeseries IDs (TSIDs)

TSIDs used from left to right in the data table
MERE.Precip-Inc.Total.1Hour.1Hour.Ccp-Rev
MERE.Elev.Inst.1Hour.0.Ccp-Rev
MERE.Stor.Inst.1Hour.0.Ccp-Rev
MERE.Flow-Res In.Ave.1Hour.1Hour.Rev-Regi-Computed
MERE.Flow-Res Out.Ave.1Hour.1Hour.Rev-Regi-Flowgroup
MERE.Dir-Wind.Inst.1Hour.0.Ccp-Rev
MERE.Speed-Wind.Inst.1Hour.0.Ccp-Rev

                            

All information presented herein is the property of the government of the United States of America and may be revised or deleted at any time without prior notice. Dissemination of this information without the expressed written consent of the Public Affairs Office, Tulsa District U.S. Army Corps of Engineers is strictly prohibited. These data are gathered electronically and, as presented, have NOT undergone any form of quality control. These data are NOT guaranteed to be valid or correct.